Time;durP1;ratioP1;P1;durP2;ratioP2;P2;SDS_P1;SDS_P2;PMS_P1;PMS_P2;Temp;Humidity;BMP_temperature;BMP_pressure;BME280_temperature;BME280_humidity;BME280_pressure;Samples;Min_cycle;Max_cycle;Signal;HPM_P1;HPM_P2
2022/05/04 00:00:24;;;;;;;3.30;3.00;;;19.70;56.40;;;;;;5082574;28;20538;-47
2022/05/04 00:02:53;;;;;;;3.93;3.53;;;19.70;56.30;;;;;;5083301;28;20471;-46
2022/05/04 00:05:21;;;;;;;3.03;2.83;;;19.70;56.20;;;;;;5066315;28;20462;-44
2022/05/04 00:07:49;;;;;;;5.13;3.13;;;19.70;56.30;;;;;;5082822;28;20518;-47
2022/05/04 00:10:17;;;;;;;7.33;3.00;;;19.70;56.30;;;;;;5092985;28;20546;-48
2022/05/04 00:12:45;;;;;;;3.17;2.87;;;19.70;56.30;;;;;;5082591;28;20566;-47
2022/05/04 00:15:14;;;;;;;4.23;3.23;;;19.70;56.30;;;;;;5100815;28;21325;-47
2022/05/04 00:17:42;;;;;;;3.90;3.50;;;19.70;57.50;;;;;;5102024;28;21115;-47
2022/05/04 00:20:11;;;;;;;3.47;3.17;;;19.70;56.30;;;;;;5087225;28;20458;-46
2022/05/04 00:22:39;;;;;;;4.03;3.10;;;19.70;56.30;;;;;;5080296;28;20544;-48
2022/05/04 00:25:09;;;;;;;3.17;2.87;;;19.70;56.30;;;;;;5059987;28;20466;-47
2022/05/04 00:27:37;;;;;;;2.80;2.60;;;19.70;56.40;;;;;;5064371;28;20472;-48
2022/05/04 00:30:07;;;;;;;2.97;2.77;;;19.70;56.40;;;;;;5064753;28;20955;-48
2022/05/04 00:32:36;;;;;;;3.20;2.83;;;19.70;56.40;;;;;;5084478;28;20465;-46
2022/05/04 00:35:05;;;;;;;4.13;3.10;;;19.60;56.40;;;;;;5082371;28;20867;-48
2022/05/04 00:37:33;;;;;;;4.70;3.40;;;19.70;56.40;;;;;;5084325;28;20909;-47
2022/05/04 00:40:01;;;;;;;4.53;3.13;;;19.70;56.40;;;;;;5097743;28;20532;-47
2022/05/04 00:42:29;;;;;;;4.13;3.13;;;19.70;56.50;;;;;;5081446;28;20460;-48
2022/05/04 00:44:57;;;;;;;3.10;2.80;;;19.70;56.50;;;;;;5081404;28;20530;-47
2022/05/04 00:47:25;;;;;;;3.10;2.90;;;19.70;56.50;;;;;;5079718;28;20537;-47
2022/05/04 00:49:55;;;;;;;3.20;2.90;;;19.60;56.40;;;;;;5070191;28;20460;-47
2022/05/04 00:52:24;;;;;;;3.63;2.50;;;19.60;56.40;;;;;;5095190;28;21006;-46
2022/05/04 00:54:53;;;;;;;4.83;3.57;;;19.60;56.50;;;;;;5086795;28;20439;-47
2022/05/04 00:58:54;;;;;;;5.23;3.20;;;19.60;56.50;;;;;;5064816;28;20476;-48
2022/05/04 01:00:11;;;;;;;3.77;2.67;;;19.60;56.40;;;;;;5103194;28;20467;-48
2022/05/04 01:02:39;;;;;;;3.17;2.87;;;19.60;56.50;;;;;;5101528;28;20466;-45
2022/05/04 01:05:10;;;;;;;2.93;2.67;;;19.60;56.50;;;;;;5079754;28;20469;-47
2022/05/04 01:07:39;;;;;;;3.23;2.93;;;19.60;56.50;;;;;;5081565;28;20507;-47
2022/05/04 01:10:09;;;;;;;2.97;2.77;;;19.60;56.60;;;;;;5080655;28;20535;-47
2022/05/04 01:12:45;;;;;;;3.33;2.67;;;19.60;56.60;;;;;;5084885;28;20503;-48
2022/05/04 01:15:13;;;;;;;3.30;3.00;;;19.60;56.60;;;;;;5084519;28;20484;-47
2022/05/04 01:17:41;;;;;;;4.00;3.60;;;19.60;56.60;;;;;;5076850;28;20551;-47
2022/05/04 01:20:11;;;;;;;3.77;3.20;;;19.60;56.50;;;;;;5071846;28;20507;-47
2022/05/04 01:22:41;;;;;;;3.60;3.30;;;19.60;56.60;;;;;;5105009;28;20471;-48
2022/05/04 01:25:11;;;;;;;3.70;3.30;;;19.60;56.60;;;;;;5086869;28;20462;-46
2022/05/04 01:27:39;;;;;;;2.90;2.60;;;19.60;56.60;;;;;;5084884;28;20572;-48
2022/05/04 01:30:08;;;;;;;4.97;3.13;;;19.60;56.70;;;;;;5083229;28;20443;-48
2022/05/04 01:32:37;;;;;;;3.50;3.20;;;19.50;56.60;;;;;;5104143;28;20476;-48
2022/05/04 01:35:05;;;;;;;3.97;3.20;;;19.60;56.70;;;;;;5072152;28;20460;-45
2022/05/04 01:37:33;;;;;;;5.13;3.20;;;19.50;56.60;;;;;;5084636;28;20978;-48
2022/05/04 01:40:03;;;;;;;3.30;3.00;;;19.50;56.60;;;;;;5082717;28;20456;-48
2022/05/04 01:42:32;;;;;;;3.40;3.10;;;19.50;56.50;;;;;;5084868;28;21036;-49
2022/05/04 01:45:00;;;;;;;3.00;2.80;;;19.50;56.70;;;;;;5083594;28;20846;-46
2022/05/04 01:47:28;;;;;;;3.47;3.20;;;19.50;56.60;;;;;;5084568;28;20498;-46
2022/05/04 01:49:56;;;;;;;2.73;2.53;;;19.50;56.60;;;;;;5085363;28;20538;-48
2022/05/04 01:52:25;;;;;;;4.00;3.00;;;19.50;56.60;;;;;;5103990;28;20466;-47
2022/05/04 01:54:53;;;;;;;3.10;2.90;;;19.50;56.60;;;;;;5096535;28;20440;-47
2022/05/04 01:57:22;;;;;;;3.30;3.00;;;19.50;56.60;;;;;;5083069;28;20455;-46
2022/05/04 01:59:51;;;;;;;4.90;3.07;;;19.50;56.70;;;;;;5085169;28;20509;-47
2022/05/04 02:02:19;;;;;;;4.30;3.00;;;19.50;56.70;;;;;;5089034;28;20470;-46
2022/05/04 02:04:49;;;;;;;3.20;2.90;;;19.40;56.60;;;;;;5087919;28;20502;-46
2022/05/04 02:07:17;;;;;;;2.77;2.57;;;19.40;56.70;;;;;;5091605;28;20466;-47
2022/05/04 02:09:46;;;;;;;3.27;3.00;;;19.40;56.70;;;;;;5086345;28;20436;-48
2022/05/04 02:12:14;;;;;;;2.97;2.40;;;19.50;56.70;;;;;;5088083;28;20467;-48
2022/05/04 02:14:43;;;;;;;3.07;2.73;;;19.50;56.70;;;;;;5077519;28;20491;-48
2022/05/04 02:17:11;;;;;;;3.67;3.33;;;19.50;56.80;;;;;;5111726;28;20462;-46
2022/05/04 02:19:39;;;;;;;4.53;3.17;;;19.50;56.70;;;;;;5108627;28;20816;-46
2022/05/04 02:22:07;;;;;;;2.70;2.50;;;19.50;56.80;;;;;;5107038;28;20502;-48
2022/05/04 02:24:35;;;;;;;3.03;2.73;;;19.40;56.80;;;;;;5110266;28;20515;-47
2022/05/04 02:27:04;;;;;;;3.00;2.70;;;19.40;56.70;;;;;;5080059;28;20470;-47
2022/05/04 02:29:32;;;;;;;3.70;3.40;;;19.40;56.70;;;;;;5090686;28;20490;-48
2022/05/04 02:32:01;;;;;;;3.40;3.10;;;19.40;56.80;;;;;;5090034;28;20896;-47
2022/05/04 02:34:29;;;;;;;3.97;3.67;;;19.40;56.80;;;;;;5097932;28;20478;-47
2022/05/04 02:39:43;;;;;;;3.17;2.77;;;19.40;56.80;;;;;;5090398;28;20532;-48
2022/05/04 02:42:11;;;;;;;3.53;3.23;;;19.40;56.90;;;;;;5089210;28;20571;-46
2022/05/04 02:44:46;;;;;;;2.97;2.70;;;19.40;56.90;;;;;;5089849;28;20440;-46
2022/05/04 02:47:16;;;;;;;4.90;3.30;;;19.40;57.00;;;;;;5090195;28;20977;-47
2022/05/04 02:49:44;;;;;;;3.40;3.10;;;19.40;56.80;;;;;;5068260;28;20448;-47
2022/05/04 02:52:12;;;;;;;2.83;2.53;;;19.40;56.80;;;;;;5089781;28;20461;-47
2022/05/04 02:54:40;;;;;;;3.10;2.80;;;19.30;56.90;;;;;;5076785;28;20427;-47
2022/05/04 02:57:08;;;;;;;3.20;2.90;;;19.30;56.90;;;;;;5087778;28;20526;-45
2022/05/04 02:59:36;;;;;;;3.50;3.10;;;19.30;56.80;;;;;;5097220;28;20444;-46
2022/05/04 03:04:51;;;;;;;4.33;2.47;;;19.30;56.80;;;;;;5077298;28;20911;-46
2022/05/04 03:07:20;;;;;;;3.23;2.83;;;19.30;56.90;;;;;;5081302;28;20519;-45
2022/05/04 03:09:48;;;;;;;4.03;3.63;;;19.30;57.30;;;;;;5098839;28;20869;-46
2022/05/04 03:12:16;;;;;;;3.13;2.67;;;19.30;56.90;;;;;;5071786;28;20570;-48
2022/05/04 03:14:44;;;;;;;3.33;2.57;;;19.30;57.00;;;;;;5068399;28;20466;-47
2022/05/04 03:17:13;;;;;;;4.03;3.00;;;19.30;57.00;;;;;;5082656;28;21019;-48
2022/05/04 03:19:41;;;;;;;3.37;3.07;;;19.30;57.00;;;;;;5065587;28;20427;-47
2022/05/04 03:22:11;;;;;;;3.77;3.47;;;19.30;57.00;;;;;;5072394;28;20480;-47
2022/05/04 03:24:39;;;;;;;4.37;2.80;;;19.30;57.00;;;;;;5067362;28;20993;-47
2022/05/04 03:27:08;;;;;;;4.40;4.00;;;19.30;57.00;;;;;;5072251;28;20573;-48
2022/05/04 03:29:36;;;;;;;4.43;3.70;;;19.20;56.90;;;;;;5064351;28;20477;-47
2022/05/04 03:32:05;;;;;;;3.37;3.07;;;19.20;56.90;;;;;;5083599;28;20529;-46
2022/05/04 03:34:33;;;;;;;3.33;3.03;;;19.20;57.00;;;;;;5080858;28;20518;-47
2022/05/04 03:37:01;;;;;;;6.50;2.60;;;19.20;56.90;;;;;;5095870;28;21010;-48
2022/05/04 03:39:31;;;;;;;3.83;3.37;;;19.20;57.00;;;;;;5099807;28;20483;-48
2022/05/04 03:42:00;;;;;;;3.53;2.63;;;19.20;57.00;;;;;;5086939;28;20480;-48
2022/05/04 03:44:29;;;;;;;4.00;3.57;;;19.20;57.00;;;;;;5102986;28;20441;-48
2022/05/04 03:46:57;;;;;;;4.00;3.67;;;19.20;57.10;;;;;;5103418;28;21015;-47
2022/05/04 03:49:25;;;;;;;3.67;3.37;;;19.20;57.00;;;;;;5091638;28;21012;-48
2022/05/04 03:51:53;;;;;;;4.13;3.33;;;19.20;57.10;;;;;;5083046;28;20462;-46
2022/05/04 03:54:22;;;;;;;5.20;3.47;;;19.20;57.10;;;;;;5064210;28;20442;-46
2022/05/04 03:56:51;;;;;;;3.77;3.47;;;19.20;57.10;;;;;;5094431;28;20477;-46
2022/05/04 03:59:19;;;;;;;5.33;3.37;;;19.20;57.00;;;;;;5104281;28;20491;-47
2022/05/04 04:01:47;;;;;;;3.47;2.93;;;19.20;57.20;;;;;;5071383;28;20549;-47
2022/05/04 04:04:16;;;;;;;3.30;3.00;;;19.20;57.20;;;;;;5080638;28;20783;-47
2022/05/04 04:06:44;;;;;;;3.13;2.93;;;19.20;57.30;;;;;;5071685;28;20605;-46
2022/05/04 04:09:12;;;;;;;3.20;3.00;;;19.10;57.20;;;;;;5103484;28;20426;-47
2022/05/04 04:11:40;;;;;;;4.07;3.70;;;19.10;57.10;;;;;;5082070;28;20472;-47
2022/05/04 04:14:10;;;;;;;3.63;3.13;;;19.10;57.10;;;;;;5082338;28;20466;-46
2022/05/04 04:16:38;;;;;;;3.40;3.10;;;19.10;57.10;;;;;;5083247;28;20523;-46
2022/05/04 04:19:06;;;;;;;3.70;2.90;;;19.10;57.10;;;;;;5075919;28;20435;-46
2022/05/04 04:21:52;;;;;;;3.90;3.60;;;19.10;57.20;;;;;;5074811;28;20473;-47
2022/05/04 04:24:22;;;;;;;2.97;2.77;;;19.10;57.20;;;;;;5082387;28;20846;-46
2022/05/04 04:26:51;;;;;;;3.80;3.43;;;19.10;57.20;;;;;;5080612;28;20471;-47
2022/05/04 04:29:20;;;;;;;4.20;3.30;;;19.10;57.20;;;;;;5056513;28;20425;-47
2022/05/04 04:31:48;;;;;;;2.93;2.63;;;19.10;57.20;;;;;;5083143;28;20985;-48
2022/05/04 04:34:17;;;;;;;4.13;3.73;;;19.10;57.30;;;;;;5091529;28;20438;-47
2022/05/04 04:36:45;;;;;;;3.63;3.33;;;19.10;57.30;;;;;;5096916;28;20523;-46
2022/05/04 04:39:13;;;;;;;4.30;3.70;;;19.10;57.20;;;;;;5093666;28;21089;-47
2022/05/04 04:41:41;;;;;;;3.60;3.30;;;19.00;57.20;;;;;;5079446;28;20519;-47
2022/05/04 04:44:09;;;;;;;4.47;3.67;;;19.00;57.20;;;;;;5098517;28;20524;-47
2022/05/04 04:46:39;;;;;;;3.30;2.83;;;19.00;57.20;;;;;;5106256;28;20486;-49
2022/05/04 04:49:07;;;;;;;3.30;3.00;;;19.00;57.30;;;;;;5089973;28;20451;-47
2022/05/04 04:51:35;;;;;;;3.60;3.20;;;19.00;57.20;;;;;;5070610;28;20459;-48
2022/05/04 04:54:03;;;;;;;4.10;2.97;;;19.00;57.40;;;;;;5086129;28;20925;-46
2022/05/04 04:56:32;;;;;;;3.13;2.90;;;19.00;58.50;;;;;;5083142;28;20465;-48
2022/05/04 04:59:00;;;;;;;5.30;3.20;;;19.00;57.20;;;;;;5085804;28;20928;-48
2022/05/04 05:01:28;;;;;;;2.87;2.67;;;19.00;57.30;;;;;;5089149;28;20500;-48
2022/05/04 05:03:58;;;;;;;3.07;2.70;;;19.00;57.20;;;;;;5074638;28;20447;-47
2022/05/04 05:06:26;;;;;;;3.63;3.33;;;19.00;57.30;;;;;;5085883;28;21005;-48
2022/05/04 05:08:54;;;;;;;2.73;2.53;;;19.00;57.80;;;;;;5087072;28;20513;-48
2022/05/04 05:11:23;;;;;;;3.10;2.53;;;19.00;57.50;;;;;;5083347;28;21252;-47
2022/05/04 05:16:38;;;;;;;3.20;2.90;;;19.00;57.40;;;;;;5086559;28;20557;-46
2022/05/04 05:19:08;;;;;;;3.33;3.00;;;19.00;57.30;;;;;;5079460;28;20439;-46
2022/05/04 05:21:36;;;;;;;3.50;3.20;;;18.90;57.30;;;;;;5078530;28;20523;-47
2022/05/04 05:24:05;;;;;;;4.50;2.77;;;18.90;57.40;;;;;;5084766;28;20460;-44
2022/05/04 05:26:33;;;;;;;3.00;2.70;;;18.90;57.30;;;;;;5070258;28;20476;-47
2022/05/04 05:29:01;;;;;;;2.60;2.40;;;18.90;57.40;;;;;;5093285;28;20931;-47
2022/05/04 05:31:34;;;;;;;3.20;2.90;;;18.90;57.30;;;;;;5106666;28;20460;-46
2022/05/04 05:34:03;;;;;;;2.63;2.33;;;18.90;58.50;;;;;;5105685;28;20437;-49
2022/05/04 05:36:32;;;;;;;2.83;2.60;;;18.90;57.40;;;;;;5078344;28;20477;-47
2022/05/04 05:39:00;;;;;;;2.80;2.60;;;18.90;57.40;;;;;;5106550;28;20752;-47
2022/05/04 05:41:28;;;;;;;2.87;2.67;;;18.90;57.30;;;;;;5099893;28;20460;-47
2022/05/04 05:43:57;;;;;;;3.33;2.80;;;18.90;57.40;;;;;;5105386;28;20541;-48
2022/05/04 05:46:25;;;;;;;4.53;2.47;;;18.90;57.30;;;;;;5102559;28;20484;-48
2022/05/04 05:48:53;;;;;;;2.70;2.50;;;18.90;57.50;;;;;;5086831;28;20958;-47
2022/05/04 05:51:21;;;;;;;2.80;2.40;;;18.90;57.50;;;;;;5071240;28;21031;-45
2022/05/04 05:53:51;;;;;;;3.13;2.40;;;18.90;57.50;;;;;;5105775;28;20435;-46
2022/05/04 05:56:20;;;;;;;2.87;2.67;;;18.90;57.50;;;;;;5076959;28;20969;-48
2022/05/04 05:58:48;;;;;;;2.50;2.30;;;18.90;57.50;;;;;;5064611;28;20426;-46
2022/05/04 06:01:16;;;;;;;2.90;2.70;;;18.90;57.50;;;;;;5064557;28;20478;-48
2022/05/04 06:03:44;;;;;;;3.47;3.20;;;18.90;57.40;;;;;;5065023;28;20447;-48
2022/05/04 06:06:16;;;;;;;3.00;2.63;;;18.90;57.50;;;;;;5072611;28;20474;-47
2022/05/04 06:08:46;;;;;;;2.67;2.47;;;18.90;57.50;;;;;;5091202;28;20421;-47
2022/05/04 06:11:15;;;;;;;2.73;2.40;;;18.90;57.50;;;;;;5069233;28;20837;-48
2022/05/04 06:13:44;;;;;;;4.47;2.80;;;18.90;57.50;;;;;;5078594;28;20431;-47
2022/05/04 06:16:12;;;;;;;3.03;2.80;;;18.90;57.40;;;;;;5068523;28;20859;-47
2022/05/04 06:18:40;;;;;;;3.10;2.80;;;18.80;57.30;;;;;;5064090;28;20448;-48
2022/05/04 06:21:08;;;;;;;3.67;2.83;;;18.80;57.30;;;;;;5079707;28;20454;-46
2022/05/04 06:23:37;;;;;;;4.10;2.73;;;18.80;57.30;;;;;;5083847;28;20519;-47
2022/05/04 06:26:07;;;;;;;4.50;2.90;;;18.80;57.20;;;;;;5079213;28;20892;-48
2022/05/04 06:28:40;;;;;;;4.53;2.90;;;18.80;57.30;;;;;;5082006;28;20437;-47
2022/05/04 06:34:10;;;;;;;3.90;3.13;;;18.80;57.30;;;;;;5083954;28;20987;-47
2022/05/04 06:36:41;;;;;;;3.40;3.10;;;18.80;57.30;;;;;;5071216;28;20886;-47
2022/05/04 06:39:09;;;;;;;3.47;3.00;;;18.80;57.20;;;;;;5083042;28;20437;-47
2022/05/04 06:41:39;;;;;;;2.87;2.33;;;18.80;57.30;;;;;;5073384;28;20467;-46
2022/05/04 06:44:09;;;;;;;3.03;2.83;;;18.70;57.20;;;;;;5022115;28;1113733;-48
2022/05/04 06:46:41;;;;;;;3.50;3.20;;;18.80;57.30;;;;;;5082709;28;20223;-46
2022/05/04 06:49:11;;;;;;;4.20;3.27;;;18.80;57.20;;;;;;5078954;28;20444;-47
2022/05/04 06:51:39;;;;;;;4.20;3.17;;;18.70;57.30;;;;;;5084427;28;21061;-47
2022/05/04 06:54:08;;;;;;;3.40;2.50;;;18.80;57.20;;;;;;5103098;28;20429;-48
2022/05/04 06:56:51;;;;;;;3.17;2.87;;;18.80;57.20;;;;;;5084576;28;20481;-47
2022/05/04 06:59:21;;;;;;;3.30;2.70;;;18.80;57.20;;;;;;5100990;28;20484;-46
2022/05/04 07:01:50;;;;;;;2.90;2.70;;;18.80;57.10;;;;;;5092145;28;21005;-47
2022/05/04 07:04:18;;;;;;;3.83;3.40;;;18.80;56.90;;;;;;5081241;28;20439;-48
2022/05/04 07:06:46;;;;;;;4.77;3.30;;;18.80;56.70;;;;;;5068282;28;20502;-49
2022/05/04 07:09:15;;;;;;;6.23;3.23;;;18.80;56.40;;;;;;5072787;28;20430;-48
2022/05/04 07:11:44;;;;;;;4.17;3.30;;;18.80;56.20;;;;;;5088049;28;20477;-48
2022/05/04 07:14:17;;;;;;;2.90;2.70;;;18.80;56.20;;;;;;5083540;28;20529;-49
2022/05/04 07:16:47;;;;;;;3.07;2.77;;;18.80;56.10;;;;;;5086503;28;20540;-46
2022/05/04 07:19:16;;;;;;;2.90;2.60;;;18.80;56.20;;;;;;5077750;28;20488;-47
2022/05/04 07:21:45;;;;;;;3.43;2.53;;;18.80;56.10;;;;;;5083244;28;20523;-47
2022/05/04 07:24:13;;;;;;;4.30;3.33;;;18.80;56.10;;;;;;5081444;28;20552;-47
2022/05/04 07:26:42;;;;;;;4.33;2.67;;;18.80;56.00;;;;;;5088551;28;20480;-49
2022/05/04 07:29:10;;;;;;;5.23;3.27;;;18.80;56.20;;;;;;5103192;28;20911;-46
2022/05/04 07:31:42;;;;;;;4.13;3.30;;;18.80;56.00;;;;;;5103204;28;20548;-48
2022/05/04 07:34:14;;;;;;;3.07;2.77;;;18.80;56.00;;;;;;5077900;28;20444;-47
2022/05/04 07:36:42;;;;;;;4.33;2.67;;;18.80;55.80;;;;;;5096712;28;20472;-47
2022/05/04 07:42:21;;;;;;;3.07;2.77;;;18.80;55.90;;;;;;5084667;28;20845;-47
2022/05/04 07:44:48;;;;;;;3.90;3.50;;;18.80;56.10;;;;;;5082540;28;20532;-48
2022/05/04 07:47:20;;;;;;;3.60;3.30;;;18.80;55.90;;;;;;5082026;28;20463;-47
2022/05/04 07:49:50;;;;;;;3.50;3.20;;;18.80;55.90;;;;;;5081599;28;20433;-46
2022/05/04 07:52:19;;;;;;;5.33;3.50;;;18.80;55.70;;;;;;5083696;28;20507;-46
2022/05/04 07:54:47;;;;;;;3.20;2.90;;;18.80;55.70;;;;;;5101111;28;20449;-48
2022/05/04 07:57:16;;;;;;;3.87;3.57;;;18.80;55.90;;;;;;5082096;28;20543;-47
2022/05/04 08:04:16;;;;;;;3.27;2.70;;;18.80;55.90;;;;;;5104056;28;20443;-48
2022/05/04 08:05:20;;;;;;;3.70;3.10;;;18.80;56.20;;;;;;5072919;28;20449;-47
2022/05/04 08:07:48;;;;;;;3.77;3.47;;;18.80;57.10;;;;;;5087004;28;20880;-48
2022/05/04 08:10:17;;;;;;;3.73;3.40;;;18.80;55.90;;;;;;5077209;28;20775;-48
2022/05/04 08:12:45;;;;;;;3.53;3.10;;;18.80;57.00;;;;;;5070805;28;20463;-48
2022/05/04 08:15:13;;;;;;;3.07;2.87;;;18.80;55.90;;;;;;5103468;28;20437;-46
2022/05/04 08:17:41;;;;;;;3.43;3.13;;;18.80;56.20;;;;;;5103366;28;20467;-46
2022/05/04 08:20:11;;;;;;;4.07;3.67;;;18.80;56.20;;;;;;5073559;28;20457;-47
2022/05/04 08:22:41;;;;;;;3.27;2.97;;;18.70;55.90;;;;;;5066458;28;20462;-46
2022/05/04 08:25:09;;;;;;;3.70;3.40;;;18.70;56.20;;;;;;5067814;28;20454;-46
2022/05/04 08:27:37;;;;;;;4.60;3.30;;;18.80;56.00;;;;;;5087053;28;20839;-48
2022/05/04 08:30:07;;;;;;;4.50;3.57;;;18.70;56.00;;;;;;5087883;28;20443;-48
2022/05/04 08:32:35;;;;;;;5.23;3.47;;;18.70;56.20;;;;;;5087357;28;20518;-48
2022/05/04 08:35:04;;;;;;;4.83;3.40;;;18.70;55.90;;;;;;5086717;28;20519;-48
2022/05/04 08:37:32;;;;;;;4.03;3.60;;;18.70;55.90;;;;;;5105535;28;21154;-47
2022/05/04 08:40:02;;;;;;;3.93;3.33;;;18.70;56.30;;;;;;5102950;28;20425;-47
2022/05/04 08:42:30;;;;;;;4.63;3.20;;;18.70;56.30;;;;;;5077468;28;20995;-47
2022/05/04 08:44:58;;;;;;;5.20;2.67;;;18.70;56.40;;;;;;5080287;28;20458;-48
2022/05/04 08:47:32;;;;;;;3.40;2.93;;;18.70;56.60;;;;;;5084675;28;20890;-48
2022/05/04 08:50:00;;;;;;;2.50;2.20;;;18.70;56.60;;;;;;5098032;28;20436;-47
2022/05/04 08:52:29;;;;;;;3.00;2.57;;;18.60;56.60;;;;;;5105607;28;20484;-46
2022/05/04 08:54:58;;;;;;;3.17;2.97;;;18.70;56.80;;;;;;5097064;28;20979;-48
2022/05/04 08:57:28;;;;;;;4.47;3.63;;;18.60;56.70;;;;;;5076484;28;20473;-46
2022/05/04 08:59:56;;;;;;;3.50;3.20;;;18.60;56.40;;;;;;5086879;28;20535;-47
2022/05/04 09:02:25;;;;;;;3.57;3.27;;;18.60;56.60;;;;;;5085619;28;20467;-47
2022/05/04 09:04:53;;;;;;;3.10;2.80;;;18.60;56.70;;;;;;5080922;28;20826;-49
2022/05/04 09:07:23;;;;;;;3.20;2.80;;;18.60;56.60;;;;;;5104216;28;20891;-46
2022/05/04 09:09:52;;;;;;;3.87;3.57;;;18.60;56.80;;;;;;5091492;28;21001;-46
2022/05/04 09:12:21;;;;;;;4.00;3.27;;;18.60;56.60;;;;;;5086038;28;20478;-46
2022/05/04 09:14:51;;;;;;;4.47;3.57;;;18.60;56.70;;;;;;5098717;28;20421;-47
2022/05/04 09:17:23;;;;;;;3.10;2.80;;;18.60;56.50;;;;;;5105572;28;20468;-48
2022/05/04 09:20:45;;;;;;;4.93;3.50;;;18.60;56.70;;;;;;5100436;28;20428;-47
2022/05/04 09:22:51;;;;;;;9.60;6.50;;;18.60;56.70;;;;;;5083379;28;20544;-45
2022/05/04 09:25:21;;;;;;;6.70;6.00;;;18.50;55.30;;;;;;5082100;28;21006;-45
2022/05/04 09:27:51;;;;;;;8.83;6.80;;;18.40;55.50;;;;;;5098855;28;20513;-46
2022/05/04 09:30:26;;;;;;;7.00;5.10;;;18.40;55.50;;;;;;5105662;28;20743;-46
2022/05/04 09:32:55;;;;;;;5.70;4.80;;;18.40;55.80;;;;;;5103888;28;20555;-47
2022/05/04 09:35:24;;;;;;;7.90;5.53;;;18.50;56.30;;;;;;5079002;28;20462;-46
2022/05/04 09:46:17;;;;;;;6.57;5.20;;;18.50;57.30;;;;;;5074415;28;20902;-46
2022/05/04 09:48:45;;;;;;;5.53;4.60;;;18.50;56.10;;;;;;5075538;28;20446;-47
2022/05/04 09:51:14;;;;;;;4.00;3.70;;;18.50;56.10;;;;;;5070756;28;20468;-48
2022/05/04 09:53:43;;;;;;;6.87;5.13;;;18.50;56.10;;;;;;5106862;28;20772;-48
2022/05/04 09:56:11;;;;;;;4.30;3.93;;;18.50;56.10;;;;;;5088113;28;20461;-48
2022/05/04 09:58:40;;;;;;;6.83;4.50;;;18.50;56.10;;;;;;5070209;28;20458;-47
2022/05/04 10:01:09;;;;;;;5.03;4.50;;;18.50;56.10;;;;;;5084962;28;20454;-47
2022/05/04 10:03:40;;;;;;;4.40;3.57;;;18.50;56.20;;;;;;5086845;28;20464;-47
2022/05/04 10:06:09;;;;;;;3.60;3.30;;;18.50;56.20;;;;;;5103480;28;20842;-47
2022/05/04 10:08:40;;;;;;;4.50;3.70;;;18.50;56.30;;;;;;5082633;28;20444;-48
2022/05/04 10:11:08;;;;;;;6.33;5.07;;;18.50;56.40;;;;;;5098959;28;20928;-47
2022/05/04 10:13:38;;;;;;;6.77;4.17;;;18.50;56.20;;;;;;5102794;28;20862;-47
2022/05/04 10:16:10;;;;;;;7.63;5.53;;;18.50;56.20;;;;;;5103329;28;20479;-47
2022/05/04 10:18:42;;;;;;;6.07;3.77;;;18.60;55.90;;;;;;5080425;28;20450;-45
2022/05/04 10:21:14;;;;;;;5.93;3.80;;;18.60;56.20;;;;;;5084643;28;20466;-47
2022/05/04 10:23:44;;;;;;;7.43;5.10;;;18.60;56.30;;;;;;5082461;28;20809;-47
2022/05/04 10:26:13;;;;;;;6.77;4.77;;;18.60;55.90;;;;;;5078278;28;20486;-49
2022/05/04 10:30:29;;;;;;;6.13;4.93;;;18.50;56.10;;;;;;5085060;28;20797;-46
2022/05/04 10:31:34;;;;;;;4.70;4.30;;;18.50;56.20;;;;;;5082416;28;20468;-48
2022/05/04 10:34:08;;;;;;;5.77;3.60;;;18.60;56.30;;;;;;5085302;28;20428;-47
2022/05/04 10:36:47;;;;;;;4.10;3.60;;;18.60;56.40;;;;;;5069735;28;20469;-48
2022/05/04 10:39:21;;;;;;;4.87;3.50;;;18.60;56.40;;;;;;5082811;28;20529;-46
2022/05/04 10:41:49;;;;;;;6.10;4.20;;;18.60;56.40;;;;;;5081301;28;20469;-48
2022/05/04 10:44:39;;;;;;;3.40;3.00;;;18.60;56.50;;;;;;5072731;28;20473;-46
2022/05/04 10:47:08;;;;;;;3.70;3.20;;;18.60;56.50;;;;;;5082100;28;20759;-46
2022/05/04 10:49:40;;;;;;;4.73;3.97;;;18.60;56.60;;;;;;5082095;28;20434;-48
2022/05/04 10:52:10;;;;;;;5.43;3.20;;;18.60;56.50;;;;;;5072166;28;20502;-48
2022/05/04 10:54:48;;;;;;;4.53;4.13;;;18.60;56.50;;;;;;5082224;28;20563;-47
2022/05/04 10:57:16;;;;;;;6.50;4.67;;;18.60;56.30;;;;;;5072753;28;20473;-48
2022/05/04 10:59:48;;;;;;;4.87;3.70;;;18.60;56.40;;;;;;5065484;28;20782;-48
2022/05/04 11:02:19;;;;;;;3.93;3.50;;;18.60;56.50;;;;;;5062361;28;20474;-48
2022/05/04 11:04:53;;;;;;;6.03;4.20;;;18.60;56.50;;;;;;5070378;28;20550;-45
2022/05/04 11:07:28;;;;;;;5.57;5.00;;;18.60;56.60;;;;;;5095858;28;20476;-46
2022/05/04 11:10:01;;;;;;;4.70;3.63;;;18.60;57.70;;;;;;5087735;28;20508;-47
2022/05/04 11:12:29;;;;;;;6.33;4.87;;;18.60;56.60;;;;;;5087160;28;20455;-47
2022/05/04 11:15:00;;;;;;;4.50;4.10;;;18.60;56.60;;;;;;5103319;28;21013;-47
2022/05/04 11:17:33;;;;;;;5.10;3.73;;;18.60;56.80;;;;;;5100557;28;20477;-47
2022/05/04 11:20:13;;;;;;;6.97;4.70;;;18.60;56.80;;;;;;5080390;28;20448;-47
2022/05/04 11:22:41;;;;;;;4.00;3.60;;;18.60;56.70;;;;;;5064784;28;21351;-48
2022/05/04 11:25:18;;;;;;;4.40;3.63;;;18.60;56.80;;;;;;5066235;28;20583;-44
2022/05/04 11:27:46;;;;;;;3.27;2.90;;;18.60;56.80;;;;;;5082631;28;20472;-47
2022/05/04 11:30:14;;;;;;;5.53;4.70;;;18.60;57.00;;;;;;5082615;28;20489;-47
2022/05/04 11:32:43;;;;;;;5.93;5.30;;;18.60;56.90;;;;;;5082560;28;20574;-47
2022/05/04 11:35:15;;;;;;;5.50;5.00;;;18.60;56.90;;;;;;5076791;28;20833;-48
2022/05/04 11:37:43;;;;;;;4.70;3.80;;;18.60;56.80;;;;;;5062495;28;20458;-48
2022/05/04 11:40:15;;;;;;;4.27;3.40;;;18.60;56.90;;;;;;5064476;28;20443;-48
2022/05/04 11:42:44;;;;;;;6.00;4.90;;;18.60;57.00;;;;;;5063421;28;21012;-46
2022/05/04 11:45:13;;;;;;;6.00;5.40;;;18.60;57.00;;;;;;5065220;28;20881;-47
2022/05/04 11:47:43;;;;;;;7.10;5.73;;;18.60;56.80;;;;;;5081252;28;20476;-49
2022/05/04 11:50:12;;;;;;;7.40;5.17;;;18.60;56.80;;;;;;5086249;28;20445;-47
2022/05/04 11:52:42;;;;;;;7.47;6.20;;;18.60;57.00;;;;;;5089488;28;20908;-47
2022/05/04 11:55:10;;;;;;;5.03;4.63;;;18.60;56.70;;;;;;5080890;28;20456;-45
2022/05/04 11:57:42;;;;;;;7.97;5.50;;;18.60;56.60;;;;;;5059718;28;21009;-47
2022/05/04 12:00:15;;;;;;;5.60;4.90;;;18.60;56.80;;;;;;5102776;28;20931;-48
2022/05/04 12:02:44;;;;;;;9.30;5.40;;;18.60;56.90;;;;;;5102398;28;20506;-47
2022/05/04 12:05:13;;;;;;;5.67;4.40;;;18.60;56.90;;;;;;5078972;28;20481;-48
2022/05/04 12:07:43;;;;;;;6.53;4.97;;;18.60;56.70;;;;;;5094713;28;20580;-46
2022/05/04 12:10:12;;;;;;;5.03;4.37;;;18.60;56.80;;;;;;5096810;28;20453;-45
2022/05/04 12:12:41;;;;;;;4.10;3.70;;;18.60;57.00;;;;;;5082422;28;20465;-48
2022/05/04 12:15:11;;;;;;;5.90;4.03;;;18.60;57.00;;;;;;5082300;28;20580;-46
2022/05/04 12:17:40;;;;;;;4.50;3.43;;;18.60;57.20;;;;;;5085432;28;20906;-48
2022/05/04 12:20:09;;;;;;;4.80;4.30;;;18.60;57.20;;;;;;5084005;28;20821;-47
2022/05/04 12:22:38;;;;;;;6.33;5.40;;;18.60;57.00;;;;;;5086938;28;20462;-46
2022/05/04 12:25:09;;;;;;;5.17;3.97;;;18.60;56.80;;;;;;5095629;28;20478;-48
2022/05/04 12:27:38;;;;;;;5.20;4.70;;;18.60;57.00;;;;;;5065878;28;20484;-47
2022/05/04 12:33:12;;;;;;;4.17;3.73;;;18.60;57.20;;;;;;5081510;28;20879;-47
2022/05/04 12:35:43;;;;;;;4.23;3.80;;;18.60;57.00;;;;;;5090081;28;20464;-48
2022/05/04 12:38:13;;;;;;;3.93;3.20;;;18.60;57.00;;;;;;5101674;28;20422;-47
2022/05/04 12:40:44;;;;;;;5.93;4.33;;;18.60;57.20;;;;;;5087011;28;20492;-48
2022/05/04 12:43:17;;;;;;;5.10;4.17;;;18.60;57.30;;;;;;5089114;28;20438;-47
2022/05/04 12:45:46;;;;;;;4.43;4.03;;;18.60;57.30;;;;;;5099875;28;20483;-46
2022/05/04 12:48:15;;;;;;;5.30;4.80;;;18.60;57.10;;;;;;5102675;28;20434;-47
2022/05/04 12:50:43;;;;;;;6.00;4.10;;;18.60;56.80;;;;;;5087621;28;21044;-48
2022/05/04 12:53:11;;;;;;;7.43;5.63;;;18.60;56.80;;;;;;5082856;28;20543;-46
2022/05/04 12:58:26;;;;;;;5.17;4.67;;;18.70;57.10;;;;;;5081610;28;20819;-47
2022/05/04 13:00:57;;;;;;;4.63;4.17;;;18.60;56.90;;;;;;5081932;28;20453;-46
2022/05/04 13:03:26;;;;;;;4.10;3.70;;;18.60;56.90;;;;;;5081662;28;20528;-47
2022/05/04 13:05:54;;;;;;;5.33;4.83;;;18.70;57.10;;;;;;5078877;28;20456;-47
2022/05/04 13:08:25;;;;;;;5.50;5.00;;;18.60;56.60;;;;;;5085982;28;20457;-45
2022/05/04 13:10:53;;;;;;;5.40;4.90;;;18.70;56.20;;;;;;5070860;28;20453;-47
2022/05/04 13:13:25;;;;;;;5.83;4.57;;;18.70;56.20;;;;;;5090348;28;20773;-47
2022/05/04 13:15:55;;;;;;;3.97;3.67;;;18.60;56.10;;;;;;5096253;28;20460;-46
2022/05/04 13:18:23;;;;;;;3.97;3.27;;;18.70;56.60;;;;;;5100245;28;20516;-46
2022/05/04 13:20:52;;;;;;;4.40;4.00;;;18.70;56.80;;;;;;5074152;28;20459;-47
2022/05/04 13:23:21;;;;;;;3.77;3.47;;;18.70;56.80;;;;;;5067112;28;20484;-46
2022/05/04 13:25:50;;;;;;;3.83;3.53;;;18.70;56.90;;;;;;5071110;28;20906;-47
2022/05/04 13:28:18;;;;;;;4.10;3.70;;;18.70;56.70;;;;;;5085818;28;20486;-49
2022/05/04 13:30:47;;;;;;;3.20;2.97;;;18.70;57.00;;;;;;5086266;28;20481;-48